Time;durP1;ratioP1;P1;durP2;ratioP2;P2;SDS_P1;SDS_P2;PMS_P1;PMS_P2;Temp;Humidity;BMP_temperature;BMP_pressure;BME280_temperature;BME280_humidity;BME280_pressure;Samples;Min_cycle;Max_cycle;Signal;HPM_P1;HPM_P2
2024/03/12 00:00:38;;;;;;;11.27;6.37;;;;;;;;;;6155126;23;20210;-91
2024/03/12 00:03:09;;;;;;;10.27;7.50;;;;;;;;;;6154323;23;20245;-90
2024/03/12 00:05:35;;;;;;;8.87;5.87;;;;;;;;;;6155532;23;20572;-90
2024/03/12 00:08:02;;;;;;;14.33;6.57;;;;;;;;;;6155106;23;20683;-91
2024/03/12 00:10:30;;;;;;;12.90;6.87;;;;;;;;;;6154886;23;20182;-90
2024/03/12 00:12:58;;;;;;;9.00;6.87;;;;;;;;;;6156042;23;20178;-91
2024/03/12 00:15:25;;;;;;;9.33;7.97;;;;;;;;;;6155213;23;20206;-90
2024/03/12 00:17:53;;;;;;;9.13;4.83;;;;;;;;;;6179414;23;20214;-91
2024/03/12 00:20:33;;;;;;;12.67;7.07;;;;;;;;;;6179149;23;20261;-90
2024/03/12 00:23:00;;;;;;;15.13;8.63;;;;;;;;;;6179545;23;20252;-90
2024/03/12 00:25:28;;;;;;;11.43;6.17;;;;;;;;;;6180280;23;20206;-91
2024/03/12 00:27:57;;;;;;;10.17;9.10;;;;;;;;;;6180270;23;20234;-91
2024/03/12 00:30:27;;;;;;;13.80;7.20;;;;;;;;;;6179982;23;20277;-90
2024/03/12 00:32:56;;;;;;;8.97;6.83;;;;;;;;;;6155777;23;20225;-91
2024/03/12 00:35:28;;;;;;;12.70;7.03;;;;;;;;;;6155112;23;20202;-90
2024/03/12 00:37:56;;;;;;;14.20;5.93;;;;;;;;;;6179713;23;20682;-90
2024/03/12 00:40:31;;;;;;;8.83;6.47;;;;;;;;;;6180533;23;20631;-91
2024/03/12 00:42:59;;;;;;;14.17;6.13;;;;;;;;;;6179856;23;20192;-90
2024/03/12 00:45:29;;;;;;;12.37;7.63;;;;;;;;;;6155113;23;20222;-91
2024/03/12 00:47:57;;;;;;;15.33;8.37;;;;;;;;;;6178663;23;20210;-90
2024/03/12 00:50:23;;;;;;;4.80;4.47;;;;;;;;;;6155424;23;20202;-91
2024/03/12 00:52:53;;;;;;;8.13;7.37;;;;;;;;;;6179331;23;20238;-91
2024/03/12 00:55:20;;;;;;;12.97;5.40;;;;;;;;;;6179804;23;20174;-91
2024/03/12 00:57:48;;;;;;;10.00;6.20;;;;;;;;;;6155010;23;20268;-91
2024/03/12 01:00:19;;;;;;;10.97;9.47;;;;;;;;;;6154563;23;20213;-90
2024/03/12 01:02:48;;;;;;;15.80;6.20;;;;;;;;;;6155851;23;20309;-90
2024/03/12 01:05:18;;;;;;;7.77;5.77;;;;;;;;;;6155269;23;20254;-90
2024/03/12 01:07:45;;;;;;;15.53;7.27;;;;;;;;;;6154866;23;20261;-90
2024/03/12 01:10:11;;;;;;;19.10;9.00;;;;;;;;;;6156013;23;20178;-91
2024/03/12 01:12:40;;;;;;;6.33;5.37;;;;;;;;;;6154948;23;20217;-90
2024/03/12 01:15:09;;;;;;;8.23;6.80;;;;;;;;;;6155202;23;20211;-90
2024/03/12 01:17:39;;;;;;;11.70;7.50;;;;;;;;;;6179775;23;20209;-90
2024/03/12 01:20:09;;;;;;;9.80;6.57;;;;;;;;;;6179962;23;20211;-91
2024/03/12 01:22:38;;;;;;;10.93;7.10;;;;;;;;;;6179523;23;20254;-91
2024/03/12 01:25:08;;;;;;;8.73;6.90;;;;;;;;;;6156339;23;20253;-91
2024/03/12 01:27:36;;;;;;;7.97;6.80;;;;;;;;;;6155490;23;20207;-91
2024/03/12 01:30:06;;;;;;;12.43;7.47;;;;;;;;;;6179724;23;20277;-91
2024/03/12 01:32:33;;;;;;;7.50;5.50;;;;;;;;;;6179774;23;20221;-90
2024/03/12 01:34:59;;;;;;;8.03;7.20;;;;;;;;;;6179417;23;20210;-91
2024/03/12 01:37:26;;;;;;;10.00;5.23;;;;;;;;;;6154791;23;20175;-91
2024/03/12 01:39:53;;;;;;;10.80;7.93;;;;;;;;;;6179261;23;20632;-90
2024/03/12 01:42:23;;;;;;;7.70;5.53;;;;;;;;;;6178325;23;20535;-90
2024/03/12 01:44:52;;;;;;;4.77;4.37;;;;;;;;;;6154811;23;20603;-91
2024/03/12 01:47:23;;;;;;;7.60;4.90;;;;;;;;;;6179074;23;20734;-91
2024/03/12 01:49:49;;;;;;;9.23;8.07;;;;;;;;;;6155162;23;20636;-90
2024/03/12 01:52:23;;;;;;;9.70;6.67;;;;;;;;;;6154787;23;20202;-90
2024/03/12 01:54:50;;;;;;;5.77;5.27;;;;;;;;;;6179416;23;20198;-90
2024/03/12 01:57:17;;;;;;;12.47;8.33;;;;;;;;;;6181204;23;20207;-90
2024/03/12 01:59:43;;;;;;;22.60;8.60;;;;;;;;;;6156459;23;20218;-92
2024/03/12 02:02:16;;;;;;;15.87;9.23;;;;;;;;;;6156471;23;20221;-91
2024/03/12 02:04:42;;;;;;;9.93;7.27;;;;;;;;;;6180791;23;20163;-90
2024/03/12 02:07:11;;;;;;;14.27;5.80;;;;;;;;;;6156536;23;20183;-90
2024/03/12 02:09:38;;;;;;;9.57;7.47;;;;;;;;;;6156527;23;20210;-90
2024/03/12 02:12:05;;;;;;;8.57;7.47;;;;;;;;;;6180974;23;20293;-92
2024/03/12 02:14:31;;;;;;;6.77;6.27;;;;;;;;;;6155827;23;20206;-90
2024/03/12 02:16:57;;;;;;;19.07;8.57;;;;;;;;;;6156770;23;20285;-91
2024/03/12 02:19:24;;;;;;;16.53;7.57;;;;;;;;;;6157034;23;20174;-90
2024/03/12 02:21:50;;;;;;;6.90;5.90;;;;;;;;;;6180873;23;20198;-91
2024/03/12 02:24:16;;;;;;;9.17;6.57;;;;;;;;;;6156000;23;20207;-90
2024/03/12 02:26:44;;;;;;;11.37;6.93;;;;;;;;;;6155604;23;20209;-90
2024/03/12 02:29:13;;;;;;;14.73;8.17;;;;;;;;;;6156293;23;20544;-91
2024/03/12 02:31:39;;;;;;;16.10;6.03;;;;;;;;;;6180985;23;20193;-91
2024/03/12 02:34:05;;;;;;;14.23;7.00;;;;;;;;;;6181530;23;20175;-90
2024/03/12 02:36:31;;;;;;;17.03;6.67;;;;;;;;;;6180233;23;20869;-90
2024/03/12 02:38:57;;;;;;;11.80;6.37;;;;;;;;;;6156141;23;20237;-90
2024/03/12 02:41:24;;;;;;;17.43;7.73;;;;;;;;;;6155278;23;20267;-90
2024/03/12 02:43:51;;;;;;;6.43;5.07;;;;;;;;;;6156171;23;20202;-90
2024/03/12 02:46:17;;;;;;;16.90;6.80;;;;;;;;;;6156786;23;20174;-91
2024/03/12 02:48:44;;;;;;;11.40;8.80;;;;;;;;;;6180412;23;20664;-89
2024/03/12 02:51:10;;;;;;;8.13;7.03;;;;;;;;;;6180893;23;20206;-91
2024/03/12 02:53:37;;;;;;;7.30;5.73;;;;;;;;;;6156100;23;20206;-91
2024/03/12 02:56:06;;;;;;;10.10;5.57;;;;;;;;;;6156356;23;20194;-91
2024/03/12 02:58:32;;;;;;;11.33;8.70;;;;;;;;;;6157066;23;20175;-91
2024/03/12 03:00:59;;;;;;;22.30;8.63;;;;;;;;;;6182853;23;20179;-91
2024/03/12 03:03:25;;;;;;;8.43;7.03;;;;;;;;;;6156262;23;20213;-91
2024/03/12 03:05:52;;;;;;;13.67;7.07;;;;;;;;;;6155410;23;20268;-91
2024/03/12 03:08:19;;;;;;;21.73;6.63;;;;;;;;;;6155558;23;20269;-90
2024/03/12 03:10:45;;;;;;;7.93;7.23;;;;;;;;;;6155518;23;20175;-90
2024/03/12 03:13:11;;;;;;;9.13;7.57;;;;;;;;;;6156604;23;20179;-90
2024/03/12 03:15:38;;;;;;;8.63;6.07;;;;;;;;;;6155171;23;20659;-90
2024/03/12 03:18:04;;;;;;;17.60;8.07;;;;;;;;;;6156125;23;20210;-90
2024/03/12 03:20:30;;;;;;;10.63;6.33;;;;;;;;;;6180215;23;20210;-90
2024/03/12 03:22:56;;;;;;;15.47;7.50;;;;;;;;;;6181916;23;20198;-91
2024/03/12 03:25:23;;;;;;;11.90;6.67;;;;;;;;;;6157123;23;20223;-90
2024/03/12 03:27:49;;;;;;;8.67;6.33;;;;;;;;;;6155757;23;20214;-91
2024/03/12 03:30:18;;;;;;;15.73;9.90;;;;;;;;;;6156318;23;20698;-90
2024/03/12 03:32:47;;;;;;;15.83;6.33;;;;;;;;;;6156236;23;20206;-91
2024/03/12 03:35:14;;;;;;;12.70;8.20;;;;;;;;;;6155715;23;20553;-90
2024/03/12 03:37:42;;;;;;;12.20;8.03;;;;;;;;;;6180570;23;20217;-90
2024/03/12 03:40:22;;;;;;;11.93;8.23;;;;;;;;;;6180800;23;20254;-90
2024/03/12 03:42:49;;;;;;;21.97;8.77;;;;;;;;;;6158045;23;20694;-90
2024/03/12 03:45:15;;;;;;;15.93;8.70;;;;;;;;;;6179686;23;20217;-90
2024/03/12 03:47:41;;;;;;;8.73;6.70;;;;;;;;;;6155110;23;20217;-91
2024/03/12 03:50:08;;;;;;;12.50;7.50;;;;;;;;;;6155409;23;20202;-90
2024/03/12 03:52:34;;;;;;;9.83;6.33;;;;;;;;;;6154960;23;20182;-90
2024/03/12 03:55:03;;;;;;;15.63;8.20;;;;;;;;;;6180547;23;20653;-90
2024/03/12 03:57:29;;;;;;;27.67;8.43;;;;;;;;;;6179481;23;20214;-89
2024/03/12 03:59:56;;;;;;;8.27;5.60;;;;;;;;;;6179565;23;20253;-90
2024/03/12 04:02:23;;;;;;;9.00;6.40;;;;;;;;;;6155215;23;20202;-90
2024/03/12 04:04:52;;;;;;;10.83;7.93;;;;;;;;;;6179454;23;20210;-90
2024/03/12 04:07:19;;;;;;;14.10;6.90;;;;;;;;;;6156834;23;20198;-90
2024/03/12 04:09:46;;;;;;;10.07;5.80;;;;;;;;;;6155468;23;20217;-90
2024/03/12 04:12:13;;;;;;;16.73;7.37;;;;;;;;;;6179976;23;20233;-91
2024/03/12 04:14:41;;;;;;;12.43;7.10;;;;;;;;;;6155267;23;20217;-90
2024/03/12 04:17:08;;;;;;;12.63;6.93;;;;;;;;;;6155244;23;20275;-91
2024/03/12 04:19:35;;;;;;;9.33;8.13;;;;;;;;;;6155354;23;20175;-91
2024/03/12 04:22:01;;;;;;;8.43;6.17;;;;;;;;;;6156001;23;20249;-91
2024/03/12 04:24:27;;;;;;;7.63;5.50;;;;;;;;;;6154705;23;20207;-91
2024/03/12 04:26:54;;;;;;;11.87;7.57;;;;;;;;;;6154576;23;20206;-90
2024/03/12 04:29:20;;;;;;;13.63;6.50;;;;;;;;;;6179706;23;20228;-91
2024/03/12 04:31:46;;;;;;;11.43;7.47;;;;;;;;;;6179689;23;20202;-91
2024/03/12 04:34:12;;;;;;;15.73;9.07;;;;;;;;;;6156243;23;20248;-90
2024/03/12 04:36:40;;;;;;;22.03;7.10;;;;;;;;;;6154625;23;20206;-91
2024/03/12 04:41:51;;;;;;;9.53;7.67;;;;;;;;;;6179276;23;20872;-91
2024/03/12 04:44:17;;;;;;;15.00;9.10;;;;;;;;;;6154916;23;20230;-90
2024/03/12 04:46:44;;;;;;;11.80;9.87;;;;;;;;;;6154773;23;20262;-90
2024/03/12 04:49:10;;;;;;;14.77;7.17;;;;;;;;;;6180530;23;20258;-90
2024/03/12 04:51:36;;;;;;;8.90;7.70;;;;;;;;;;6155068;23;20203;-91
2024/03/12 04:54:03;;;;;;;15.63;9.70;;;;;;;;;;6179811;23;20256;-90
2024/03/12 04:56:29;;;;;;;13.27;6.10;;;;;;;;;;6178872;23;20206;-91
2024/03/12 04:58:55;;;;;;;23.20;11.03;;;;;;;;;;6180024;23;20364;-91
2024/03/12 05:01:22;;;;;;;10.83;9.07;;;;;;;;;;6155889;23;20619;-90
2024/03/12 05:03:49;;;;;;;30.10;8.80;;;;;;;;;;6154552;23;20265;-90
2024/03/12 05:06:16;;;;;;;14.53;10.47;;;;;;;;;;6154498;23;20250;-91
2024/03/12 05:08:43;;;;;;;11.23;9.80;;;;;;;;;;6155650;23;20280;-91
2024/03/12 05:11:09;;;;;;;11.87;8.60;;;;;;;;;;6179990;23;20206;-91
2024/03/12 05:13:35;;;;;;;16.67;11.23;;;;;;;;;;6155422;23;20995;-91
2024/03/12 05:16:02;;;;;;;15.57;8.43;;;;;;;;;;6155917;23;20257;-91
2024/03/12 05:18:31;;;;;;;30.83;14.03;;;;;;;;;;6155163;23;20225;-91
2024/03/12 05:20:57;;;;;;;13.30;8.93;;;;;;;;;;6155198;23;20205;-91
2024/03/12 05:23:23;;;;;;;13.83;9.20;;;;;;;;;;6154521;23;20260;-91
2024/03/12 05:25:51;;;;;;;15.03;8.80;;;;;;;;;;6154820;23;20199;-91
2024/03/12 05:28:20;;;;;;;20.70;12.70;;;;;;;;;;6180141;23;20526;-90
2024/03/12 05:30:48;;;;;;;13.47;8.53;;;;;;;;;;6180800;23;20201;-91
2024/03/12 05:33:15;;;;;;;13.33;9.67;;;;;;;;;;6157287;23;20249;-91
2024/03/12 05:35:51;;;;;;;14.47;8.40;;;;;;;;;;6181050;23;20260;-91
2024/03/12 05:38:55;;;;;;;14.77;8.63;;;;;;;;;;6181376;23;20202;-90
2024/03/12 05:49:08;;;;;;;20.23;9.07;;;;;;;;;;6181949;23;20202;-91
2024/03/12 05:51:37;;;;;;;17.80;9.07;;;;;;;;;;6180940;23;20206;-91
2024/03/12 05:54:07;;;;;;;10.10;9.17;;;;;;;;;;6181591;23;20771;-90
2024/03/12 05:56:35;;;;;;;19.70;12.37;;;;;;;;;;6156518;23;20198;-91
2024/03/12 05:59:01;;;;;;;17.97;9.97;;;;;;;;;;6181698;23;20198;-90
2024/03/12 06:01:27;;;;;;;10.60;8.00;;;;;;;;;;6181686;23;20543;-91
2024/03/12 06:03:53;;;;;;;19.50;10.70;;;;;;;;;;6157904;23;20493;-90
2024/03/12 06:06:20;;;;;;;28.40;11.93;;;;;;;;;;6182074;23;20215;-91
2024/03/12 06:08:46;;;;;;;16.57;9.67;;;;;;;;;;6180771;23;20214;-91
2024/03/12 06:11:12;;;;;;;12.83;8.63;;;;;;;;;;6163321;23;20679;-90
2024/03/12 06:13:39;;;;;;;12.63;11.33;;;;;;;;;;6181551;23;20184;-90
2024/03/12 06:16:06;;;;;;;11.40;10.20;;;;;;;;;;6181576;23;20241;-90
2024/03/12 06:18:32;;;;;;;14.50;9.43;;;;;;;;;;6156293;23;20217;-91
2024/03/12 06:20:58;;;;;;;26.97;10.30;;;;;;;;;;6179347;23;20206;-90
2024/03/12 06:23:25;;;;;;;29.37;13.80;;;;;;;;;;6180746;23;20202;-90
2024/03/12 06:25:55;;;;;;;12.77;9.20;;;;;;;;;;6156264;23;20640;-90
2024/03/12 06:28:21;;;;;;;13.03;9.30;;;;;;;;;;6182689;23;20238;-91
2024/03/12 06:30:51;;;;;;;26.97;11.80;;;;;;;;;;6181719;23;20210;-91
2024/03/12 06:33:17;;;;;;;8.40;5.97;;;;;;;;;;6156264;23;20202;-91
2024/03/12 06:35:47;;;;;;;15.77;9.93;;;;;;;;;;6156982;23;20203;-90
2024/03/12 06:38:14;;;;;;;16.80;14.47;;;;;;;;;;6155977;23;20759;-89
2024/03/12 06:40:40;;;;;;;18.73;11.40;;;;;;;;;;6180733;23;20171;-90
2024/03/12 06:43:13;;;;;;;21.07;10.50;;;;;;;;;;6181875;23;20167;-89
2024/03/12 06:45:40;;;;;;;21.20;10.87;;;;;;;;;;6180443;23;20233;-89
2024/03/12 06:48:07;;;;;;;21.07;12.17;;;;;;;;;;6180888;23;20214;-92
2024/03/12 06:50:33;;;;;;;16.30;8.87;;;;;;;;;;6156144;23;20257;-89
2024/03/12 06:52:59;;;;;;;16.47;11.70;;;;;;;;;;6155437;23;20203;-90
2024/03/12 06:55:26;;;;;;;14.43;9.73;;;;;;;;;;6181567;23;20305;-89
2024/03/12 06:58:04;;;;;;;19.17;9.77;;;;;;;;;;6155375;23;20498;-89
2024/03/12 07:00:37;;;;;;;15.57;12.33;;;;;;;;;;6180634;23;20217;-90
2024/03/12 07:03:04;;;;;;;16.13;10.57;;;;;;;;;;6157538;23;20676;-90
2024/03/12 07:05:33;;;;;;;13.40;10.00;;;;;;;;;;6156072;23;20230;-91
2024/03/12 07:08:05;;;;;;;25.77;12.17;;;;;;;;;;6181080;23;20218;-90
2024/03/12 07:10:32;;;;;;;16.23;7.73;;;;;;;;;;6155076;23;20170;-90
2024/03/12 07:13:00;;;;;;;26.67;15.90;;;;;;;;;;6180401;23;20174;-89
2024/03/12 07:15:28;;;;;;;14.07;10.07;;;;;;;;;;6155214;23;20217;-88
2024/03/12 07:17:54;;;;;;;20.63;11.43;;;;;;;;;;6179584;23;20203;-89
2024/03/12 07:20:21;;;;;;;44.63;14.37;;;;;;;;;;6155567;23;20210;-90
2024/03/12 07:22:48;;;;;;;33.47;12.33;;;;;;;;;;6155732;23;20231;-90
2024/03/12 07:25:17;;;;;;;16.73;11.17;;;;;;;;;;6155889;23;20240;-89
2024/03/12 07:27:44;;;;;;;22.10;12.57;;;;;;;;;;6178887;23;20218;-90
2024/03/12 07:30:10;;;;;;;19.03;11.30;;;;;;;;;;6155268;23;20237;-90
2024/03/12 07:32:37;;;;;;;21.00;9.57;;;;;;;;;;6180169;23;20781;-91
2024/03/12 07:35:04;;;;;;;19.63;11.40;;;;;;;;;;6154949;23;20225;-90
2024/03/12 07:37:30;;;;;;;31.43;10.63;;;;;;;;;;6180913;23;20514;-91
2024/03/12 07:39:59;;;;;;;21.30;11.00;;;;;;;;;;6157085;23;20541;-92
2024/03/12 07:42:25;;;;;;;17.47;8.97;;;;;;;;;;6179404;23;20221;-92
2024/03/12 07:44:52;;;;;;;18.13;10.40;;;;;;;;;;6155232;23;20718;-90
2024/03/12 07:47:19;;;;;;;12.67;7.40;;;;;;;;;;6181232;23;20217;-91
2024/03/12 07:49:45;;;;;;;22.37;10.10;;;;;;;;;;6155693;23;20221;-90
2024/03/12 07:52:13;;;;;;;16.80;8.37;;;;;;;;;;6155239;23;20174;-91
2024/03/12 07:54:40;;;;;;;11.80;8.90;;;;;;;;;;6156159;23;20206;-91
2024/03/12 07:57:12;;;;;;;26.27;10.80;;;;;;;;;;6156924;23;20206;-91
2024/03/12 07:59:38;;;;;;;16.00;9.20;;;;;;;;;;6157108;23;20199;-91
2024/03/12 08:02:11;;;;;;;19.40;8.07;;;;;;;;;;6155094;23;20202;-90
2024/03/12 08:04:43;;;;;;;26.17;10.63;;;;;;;;;;6156407;23;20616;-91
2024/03/12 08:07:13;;;;;;;16.03;7.97;;;;;;;;;;6156623;23;20198;-90
2024/03/12 08:09:42;;;;;;;19.17;10.37;;;;;;;;;;6144166;23;20206;-91
2024/03/12 08:12:13;;;;;;;17.07;8.57;;;;;;;;;;6180956;23;20207;-91
2024/03/12 08:14:39;;;;;;;8.17;6.87;;;;;;;;;;6156986;23;20225;-92
2024/03/12 08:17:12;;;;;;;12.13;6.83;;;;;;;;;;6146623;23;20277;-91
2024/03/12 08:19:38;;;;;;;8.50;5.23;;;;;;;;;;6158195;23;20159;-91
2024/03/12 08:22:13;;;;;;;6.53;5.97;;;;;;;;;;6183208;23;20157;-91
2024/03/12 08:24:40;;;;;;;13.43;5.63;;;;;;;;;;6180596;23;20533;-91
2024/03/12 08:27:08;;;;;;;8.60;5.80;;;;;;;;;;6155559;23;20206;-90
2024/03/12 08:29:35;;;;;;;5.30;4.13;;;;;;;;;;6180353;23;20265;-91
2024/03/12 08:32:03;;;;;;;6.90;4.67;;;;;;;;;;6155415;23;20198;-90
2024/03/12 08:34:30;;;;;;;10.63;5.23;;;;;;;;;;6179763;23;20171;-91
2024/03/12 08:36:56;;;;;;;5.63;5.10;;;;;;;;;;6181104;23;20177;-92
2024/03/12 08:39:27;;;;;;;13.43;6.10;;;;;;;;;;6155816;23;20202;-91
2024/03/12 08:41:54;;;;;;;6.50;3.97;;;;;;;;;;6157873;23;20512;-91
2024/03/12 08:44:24;;;;;;;6.83;4.30;;;;;;;;;;6181478;23;20194;-92
2024/03/12 08:46:50;;;;;;;9.80;4.10;;;;;;;;;;6155809;23;20203;-92
2024/03/12 08:49:16;;;;;;;8.17;3.47;;;;;;;;;;6156936;23;20501;-92
2024/03/12 08:51:42;;;;;;;8.30;5.77;;;;;;;;;;6156148;23;20544;-91
2024/03/12 08:54:08;;;;;;;7.23;5.13;;;;;;;;;;6156862;23;20212;-91
2024/03/12 08:56:36;;;;;;;12.07;5.20;;;;;;;;;;6180269;23;20198;-89
2024/03/12 08:59:02;;;;;;;5.50;3.47;;;;;;;;;;6155467;23;20222;-90
2024/03/12 09:01:28;;;;;;;5.53;4.70;;;;;;;;;;6154181;23;20221;-90
2024/03/12 09:03:55;;;;;;;5.40;4.63;;;;;;;;;;6182603;23;20213;-90
2024/03/12 09:06:24;;;;;;;2.70;2.60;;;;;;;;;;6158800;23;20245;-90
2024/03/12 09:08:50;;;;;;;5.30;4.90;;;;;;;;;;6158421;23;20225;-90
2024/03/12 09:11:17;;;;;;;6.27;5.67;;;;;;;;;;6159740;23;20646;-89
2024/03/12 09:13:47;;;;;;;5.07;3.97;;;;;;;;;;6160297;23;20175;-89
2024/03/12 09:16:13;;;;;;;7.20;4.87;;;;;;;;;;6184975;23;20170;-90
2024/03/12 09:18:42;;;;;;;7.70;4.53;;;;;;;;;;6184640;23;20531;-89
2024/03/12 09:21:09;;;;;;;10.57;4.93;;;;;;;;;;6159357;23;20206;-89
2024/03/12 09:23:36;;;;;;;11.50;5.53;;;;;;;;;;6160232;23;20194;-90
2024/03/12 09:26:04;;;;;;;6.70;4.27;;;;;;;;;;6184542;23;20209;-89
2024/03/12 09:28:30;;;;;;;3.73;3.30;;;;;;;;;;6159840;23;20658;-90
2024/03/12 09:30:57;;;;;;;7.53;3.83;;;;;;;;;;6160478;23;20225;-90
2024/03/12 09:33:25;;;;;;;11.73;4.67;;;;;;;;;;6159997;23;20266;-90
2024/03/12 09:35:51;;;;;;;6.93;3.90;;;;;;;;;;6184645;23;20199;-91
2024/03/12 09:38:19;;;;;;;5.73;4.47;;;;;;;;;;6160217;23;20194;-90
2024/03/12 09:40:45;;;;;;;6.13;4.07;;;;;;;;;;6184461;23;20167;-91
2024/03/12 09:43:13;;;;;;;8.37;3.50;;;;;;;;;;6184916;23;20177;-90
2024/03/12 09:45:40;;;;;;;5.07;4.03;;;;;;;;;;6159311;23;20233;-90
2024/03/12 09:48:08;;;;;;;7.07;5.03;;;;;;;;;;6159441;23;20211;-90
2024/03/12 09:50:35;;;;;;;5.67;5.13;;;;;;;;;;6160307;23;20278;-91
2024/03/12 09:53:02;;;;;;;9.00;5.67;;;;;;;;;;6160099;23;20222;-91
2024/03/12 09:55:31;;;;;;;7.67;6.10;;;;;;;;;;6184417;23;20167;-92
2024/03/12 09:57:58;;;;;;;10.47;4.73;;;;;;;;;;6185265;23;20207;-90
2024/03/12 10:00:27;;;;;;;12.80;6.17;;;;;;;;;;6184943;23;20528;-90
2024/03/12 10:02:55;;;;;;;7.13;4.53;;;;;;;;;;6160868;23;20202;-91
2024/03/12 10:05:24;;;;;;;4.27;3.10;;;;;;;;;;6159375;23;20230;-90
2024/03/12 10:08:12;;;;;;;8.87;2.73;;;;;;;;;;6157956;23;20281;-90
2024/03/12 10:10:48;;;;;;;4.70;3.80;;;;;;;;;;6183303;23;20193;-91
2024/03/12 10:13:15;;;;;;;2.80;2.60;;;;;;;;;;6184006;23;20162;-90
2024/03/12 10:15:49;;;;;;;7.50;5.67;;;;;;;;;;6183153;23;20264;-90
2024/03/12 10:18:16;;;;;;;7.37;4.20;;;;;;;;;;6183631;23;20759;-90
2024/03/12 10:20:49;;;;;;;16.47;6.13;;;;;;;;;;6185244;23;20264;-89
2024/03/12 10:23:16;;;;;;;5.97;2.70;;;;;;;;;;6185797;23;20248;-90
2024/03/12 10:25:46;;;;;;;3.30;2.80;;;;;;;;;;6185730;23;20216;-89
2024/03/12 10:28:16;;;;;;;5.60;3.63;;;;;;;;;;6161630;23;20281;-90
2024/03/12 10:30:45;;;;;;;5.77;4.20;;;;;;;;;;6185075;23;20206;-90
2024/03/12 10:33:21;;;;;;;6.63;3.67;;;;;;;;;;6185318;23;20592;-89
2024/03/12 10:35:50;;;;;;;8.47;3.67;;;;;;;;;;6185448;23;20277;-90
2024/03/12 10:38:31;;;;;;;8.40;4.10;;;;;;;;;;6185414;23;20648;-91
2024/03/12 10:40:58;;;;;;;5.57;3.13;;;;;;;;;;6184666;23;20194;-90
2024/03/12 10:43:24;;;;;;;7.27;4.63;;;;;;;;;;6160771;23;20171;-90
2024/03/12 10:45:51;;;;;;;3.40;2.53;;;;;;;;;;6184088;23;20644;-90
2024/03/12 10:48:18;;;;;;;7.40;4.67;;;;;;;;;;6185001;23;20245;-90
2024/03/12 10:50:45;;;;;;;6.47;4.07;;;;;;;;;;6184935;23;20281;-90
2024/03/12 10:53:12;;;;;;;4.90;4.27;;;;;;;;;;6185329;23;20209;-91
2024/03/12 10:55:40;;;;;;;10.20;5.23;;;;;;;;;;6160996;23;20464;-90
2024/03/12 10:58:06;;;;;;;9.87;4.47;;;;;;;;;;6185112;23;20171;-91
2024/03/12 11:00:35;;;;;;;7.10;4.03;;;;;;;;;;6159489;23;20277;-90
2024/03/12 11:03:02;;;;;;;4.67;3.30;;;;;;;;;;6183916;23;20214;-92
2024/03/12 11:05:28;;;;;;;9.00;4.17;;;;;;;;;;6182839;23;20206;-92
2024/03/12 11:07:58;;;;;;;10.90;5.47;;;;;;;;;;6183413;23;20663;-91
2024/03/12 11:10:28;;;;;;;15.37;7.27;;;;;;;;;;6161569;23;20170;-89
2024/03/12 11:12:55;;;;;;;6.33;4.47;;;;;;;;;;6210283;23;20645;-89
2024/03/12 11:15:23;;;;;;;5.37;3.90;;;;;;;;;;6184144;23;20221;-90
2024/03/12 11:17:50;;;;;;;5.10;3.90;;;;;;;;;;6160483;23;20206;-90
2024/03/12 11:20:23;;;;;;;7.93;4.97;;;;;;;;;;6184851;23;20523;-90
2024/03/12 11:22:55;;;;;;;5.63;4.60;;;;;;;;;;6168514;23;20325;-90
2024/03/12 11:25:38;;;;;;;6.77;5.63;;;;;;;;;;6139780;23;20167;-90
2024/03/12 11:28:24;;;;;;;8.33;4.70;;;;;;;;;;6205428;23;20190;-90
2024/03/12 11:30:56;;;;;;;5.23;4.30;;;;;;;;;;6156070;23;20214;-91
2024/03/12 11:33:55;;;;;;;18.50;6.93;;;;;;;;;;6180149;23;20271;-90
2024/03/12 11:36:22;;;;;;;8.17;4.20;;;;;;;;;;6157293;23;21021;-89
2024/03/12 11:38:51;;;;;;;19.20;5.13;;;;;;;;;;6155340;23;20207;-89
2024/03/12 11:41:18;;;;;;;5.57;5.03;;;;;;;;;;6179354;23;20203;-90
2024/03/12 11:43:44;;;;;;;7.90;3.53;;;;;;;;;;6155015;23;20489;-90
2024/03/12 11:46:20;;;;;;;4.50;2.90;;;;;;;;;;6180566;23;20260;-90
2024/03/12 11:48:47;;;;;;;3.10;2.80;;;;;;;;;;6155263;23;20210;-89
2024/03/12 11:51:13;;;;;;;4.47;3.33;;;;;;;;;;6154594;23;20210;-89
2024/03/12 11:53:41;;;;;;;13.97;3.63;;;;;;;;;;6179471;23;20237;-89
2024/03/12 11:56:10;;;;;;;6.20;3.73;;;;;;;;;;6180723;23;20202;-90
2024/03/12 11:58:51;;;;;;;6.50;3.37;;;;;;;;;;6179505;23;20217;-89
2024/03/12 12:01:20;;;;;;;6.53;5.07;;;;;;;;;;6180854;23;20163;-89
2024/03/12 12:03:50;;;;;;;9.97;4.27;;;;;;;;;;6178477;23;20652;-89
2024/03/12 12:06:19;;;;;;;7.93;4.47;;;;;;;;;;6178893;23;20313;-89
2024/03/12 12:08:47;;;;;;;4.93;3.87;;;;;;;;;;6155556;23;20218;-90
2024/03/12 12:11:15;;;;;;;7.43;4.57;;;;;;;;;;6179808;23;20236;-89
2024/03/12 12:13:42;;;;;;;6.17;3.13;;;;;;;;;;6180018;23;20221;-89
2024/03/12 12:16:14;;;;;;;6.37;5.50;;;;;;;;;;6179895;23;20673;-89
2024/03/12 12:18:40;;;;;;;11.97;3.40;;;;;;;;;;6179368;23;20294;-88
2024/03/12 12:21:09;;;;;;;6.53;2.73;;;;;;;;;;6125303;23;20675;-89
2024/03/12 12:23:39;;;;;;;7.13;6.13;;;;;;;;;;6176307;23;20199;-89
2024/03/12 12:26:06;;;;;;;5.60;5.13;;;;;;;;;;6155109;23;20655;-89
2024/03/12 12:28:33;;;;;;;11.23;4.63;;;;;;;;;;6179133;23;20257;-89
2024/03/12 12:31:01;;;;;;;10.73;6.17;;;;;;;;;;6180751;23;20210;-91
2024/03/12 12:33:28;;;;;;;25.90;3.33;;;;;;;;;;6179329;23;20304;-90
2024/03/12 12:35:55;;;;;;;6.77;4.47;;;;;;;;;;6154552;23;20218;-90
2024/03/12 12:38:22;;;;;;;6.70;3.93;;;;;;;;;;6179417;23;20404;-91
2024/03/12 12:40:48;;;;;;;3.93;3.43;;;;;;;;;;6154356;23;20202;-90
2024/03/12 12:43:19;;;;;;;6.53;4.53;;;;;;;;;;6154858;23;20175;-90
2024/03/12 12:45:46;;;;;;;10.43;3.27;;;;;;;;;;6177221;23;20532;-91
2024/03/12 12:48:13;;;;;;;6.03;4.17;;;;;;;;;;6152600;23;20273;-90
2024/03/12 12:50:39;;;;;;;4.40;3.33;;;;;;;;;;6178860;23;20506;-90
2024/03/12 12:53:05;;;;;;;8.73;4.20;;;;;;;;;;6152573;23;20697;-90
2024/03/12 12:55:32;;;;;;;2.77;2.57;;;;;;;;;;6178411;23;20212;-90
2024/03/12 12:57:59;;;;;;;5.33;3.70;;;;;;;;;;6180172;23;20608;-89
2024/03/12 13:00:26;;;;;;;4.27;3.87;;;;;;;;;;6179055;23;20550;-90
2024/03/12 13:02:53;;;;;;;3.60;2.83;;;;;;;;;;6179019;23;20273;-89
2024/03/12 13:05:20;;;;;;;3.30;2.90;;;;;;;;;;6152143;23;20249;-89
2024/03/12 13:07:46;;;;;;;4.17;3.60;;;;;;;;;;6155004;23;20241;-90
2024/03/12 13:10:23;;;;;;;11.90;4.40;;;;;;;;;;6154328;23;20174;-89
2024/03/12 13:12:51;;;;;;;11.63;4.00;;;;;;;;;;6178524;23;20210;-89
2024/03/12 13:15:33;;;;;;;4.43;3.47;;;;;;;;;;6154255;23;20208;-89
2024/03/12 13:18:00;;;;;;;4.07;2.63;;;;;;;;;;6155311;23;20242;-89
2024/03/12 13:20:26;;;;;;;7.30;3.37;;;;;;;;;;6179369;23;20252;-90
2024/03/12 13:22:53;;;;;;;5.53;2.63;;;;;;;;;;6154328;23;20314;-89
2024/03/12 13:25:21;;;;;;;2.73;2.53;;;;;;;;;;6154666;23;20175;-91
2024/03/12 13:27:50;;;;;;;5.07;2.93;;;;;;;;;;6154541;23;20203;-88
2024/03/12 13:30:16;;;;;;;4.20;3.00;;;;;;;;;;6155002;23;20202;-89
2024/03/12 13:32:43;;;;;;;6.03;3.63;;;;;;;;;;6153754;23;20207;-89
2024/03/12 13:35:09;;;;;;;5.13;3.97;;;;;;;;;;6179003;23;20226;-89
2024/03/12 13:37:36;;;;;;;4.63;4.20;;;;;;;;;;6154260;23;20221;-89
2024/03/12 13:40:05;;;;;;;3.83;2.67;;;;;;;;;;6154807;23;20572;-89
2024/03/12 13:42:32;;;;;;;5.50;4.80;;;;;;;;;;6178590;23;20240;-90
2024/03/12 13:45:07;;;;;;;5.80;2.73;;;;;;;;;;6154091;23;20281;-90
2024/03/12 13:47:33;;;;;;;6.37;3.17;;;;;;;;;;6153639;23;20224;-89
2024/03/12 13:50:00;;;;;;;5.87;3.43;;;;;;;;;;6154523;23;20202;-89
2024/03/12 13:52:27;;;;;;;6.13;4.20;;;;;;;;;;6156625;23;20174;-88
2024/03/12 13:54:54;;;;;;;11.20;5.03;;;;;;;;;;6180520;23;20237;-89
2024/03/12 13:57:24;;;;;;;5.97;3.27;;;;;;;;;;6180678;23;20206;-88
2024/03/12 13:59:53;;;;;;;7.43;2.87;;;;;;;;;;6157585;23;20198;-89
2024/03/12 14:02:22;;;;;;;6.33;3.37;;;;;;;;;;6155623;23;20206;-90
2024/03/12 14:04:49;;;;;;;19.10;4.87;;;;;;;;;;6156179;23;20209;-89
2024/03/12 14:07:16;;;;;;;8.20;4.00;;;;;;;;;;6156776;23;21034;-88
2024/03/12 14:09:45;;;;;;;6.17;3.73;;;;;;;;;;6155950;23;20242;-88
2024/03/12 14:12:13;;;;;;;4.50;2.90;;;;;;;;;;6156478;23;20202;-88
2024/03/12 14:14:39;;;;;;;8.47;4.13;;;;;;;;;;6180099;23;20271;-90
2024/03/12 14:17:05;;;;;;;3.20;3.00;;;;;;;;;;6180212;23;20198;-88
2024/03/12 14:19:31;;;;;;;13.97;4.70;;;;;;;;;;6155723;23;20182;-88
2024/03/12 14:21:57;;;;;;;5.87;3.10;;;;;;;;;;6156809;23;20171;-90
2024/03/12 14:24:25;;;;;;;4.43;4.00;;;;;;;;;;6141878;23;20928;-89
2024/03/12 14:26:51;;;;;;;6.20;4.07;;;;;;;;;;6155809;23;20921;-89
2024/03/12 14:29:17;;;;;;;3.37;3.13;;;;;;;;;;6179668;23;20221;-88
2024/03/12 14:31:44;;;;;;;5.77;4.93;;;;;;;;;;6182279;23;20660;-89
2024/03/12 14:34:12;;;;;;;6.97;4.40;;;;;;;;;;6182512;23;20179;-89
2024/03/12 14:36:40;;;;;;;10.57;4.23;;;;;;;;;;6155459;23;20535;-89
2024/03/12 14:39:07;;;;;;;8.30;5.57;;;;;;;;;;6156189;23;20210;-89
2024/03/12 14:41:34;;;;;;;10.13;3.57;;;;;;;;;;6157697;23;20291;-91
2024/03/12 14:44:00;;;;;;;4.43;3.53;;;;;;;;;;6144427;23;20671;-89
2024/03/12 14:46:26;;;;;;;12.23;5.03;;;;;;;;;;6157291;23;20237;-90
2024/03/12 14:48:54;;;;;;;8.97;4.00;;;;;;;;;;6180708;23;20295;-90
2024/03/12 14:51:21;;;;;;;4.70;3.07;;;;;;;;;;6156321;23;20203;-90